Time;durP1;ratioP1;P1;durP2;ratioP2;P2;SDS_P1;SDS_P2;PMS_P1;PMS_P2;Temp;Humidity;BMP_temperature;BMP_pressure;BME280_temperature;BME280_humidity;BME280_pressure;Samples;Min_cycle;Max_cycle;Signal;HPM_P1;HPM_P2
2023/09/28 00:00:37;;;;;;;6.75;4.63;;;;;;;;;;6284972;22;20385;-80
2023/09/28 00:03:08;;;;;;;6.30;5.20;;;;;;;;;;6259877;22;20013;-80
2023/09/28 00:05:34;;;;;;;5.25;4.60;;;;;;;;;;6285013;22;20065;-80
2023/09/28 00:08:01;;;;;;;6.10;4.88;;;;;;;;;;6286113;22;20022;-80
2023/09/28 00:10:28;;;;;;;4.97;4.22;;;;;;;;;;6313434;22;20338;-80
2023/09/28 00:12:54;;;;;;;5.07;4.53;;;;;;;;;;6315115;22;20011;-81
2023/09/28 00:15:20;;;;;;;5.28;4.60;;;;;;;;;;6314239;22;20059;-81
2023/09/28 00:17:51;;;;;;;5.55;4.65;;;;;;;;;;6315742;22;20033;-80
2023/09/28 00:20:18;;;;;;;5.57;4.93;;;;;;;;;;6314219;22;20015;-80
2023/09/28 00:22:54;;;;;;;5.63;4.28;;;;;;;;;;6314552;22;20041;-80
2023/09/28 00:25:22;;;;;;;4.88;4.43;;;;;;;;;;6314531;22;20015;-81
2023/09/28 00:27:50;;;;;;;5.18;4.15;;;;;;;;;;6313640;22;20018;-81
2023/09/28 00:30:20;;;;;;;5.20;4.25;;;;;;;;;;6284810;22;20025;-81
2023/09/28 00:32:46;;;;;;;6.40;4.65;;;;;;;;;;6285998;22;20060;-81
2023/09/28 00:35:13;;;;;;;5.10;4.60;;;;;;;;;;6312811;22;20015;-81
2023/09/28 00:37:39;;;;;;;5.45;4.40;;;;;;;;;;6286502;22;20018;-80
2023/09/28 00:40:17;;;;;;;5.50;4.90;;;;;;;;;;6313666;22;20023;-80
2023/09/28 00:42:46;;;;;;;5.70;4.45;;;;;;;;;;6313969;22;20015;-80
2023/09/28 00:45:13;;;;;;;5.97;4.68;;;;;;;;;;6314126;22;20018;-81
2023/09/28 00:47:39;;;;;;;7.57;4.53;;;;;;;;;;6313302;22;20019;-81
2023/09/28 00:50:10;;;;;;;5.28;4.10;;;;;;;;;;6284790;22;20096;-81
2023/09/28 00:52:40;;;;;;;5.38;4.53;;;;;;;;;;6285889;22;20027;-81
2023/09/28 00:55:07;;;;;;;6.55;4.25;;;;;;;;;;6313956;22;20068;-81
2023/09/28 00:57:33;;;;;;;5.72;4.10;;;;;;;;;;6313249;22;20503;-80
2023/09/28 01:00:09;;;;;;;5.70;4.60;;;;;;;;;;6312834;22;20062;-80
2023/09/28 01:02:36;;;;;;;5.90;4.63;;;;;;;;;;6285526;22;20015;-81
2023/09/28 01:05:04;;;;;;;5.95;4.88;;;;;;;;;;6258777;22;20094;-81
2023/09/28 01:07:31;;;;;;;6.28;5.10;;;;;;;;;;6285795;22;20316;-80
2023/09/28 01:09:58;;;;;;;5.07;4.07;;;;;;;;;;6313102;22;20454;-80
2023/09/28 01:12:25;;;;;;;4.40;4.00;;;;;;;;;;6313575;22;20038;-80
2023/09/28 01:14:56;;;;;;;7.10;4.20;;;;;;;;;;6311478;22;20008;-80
2023/09/28 01:17:22;;;;;;;5.28;4.63;;;;;;;;;;6312386;22;20331;-80
2023/09/28 01:19:48;;;;;;;6.60;4.70;;;;;;;;;;6285726;22;20041;-80
2023/09/28 01:22:14;;;;;;;7.68;4.00;;;;;;;;;;6312734;22;20511;-81
2023/09/28 01:24:40;;;;;;;4.25;3.85;;;;;;;;;;6314057;22;20025;-81
2023/09/28 01:27:06;;;;;;;7.82;4.55;;;;;;;;;;6284079;22;20042;-81
2023/09/28 01:29:33;;;;;;;5.55;3.90;;;;;;;;;;6286184;22;20019;-81
2023/09/28 01:31:59;;;;;;;4.38;3.95;;;;;;;;;;6284096;22;20015;-81
2023/09/28 01:34:25;;;;;;;6.25;4.07;;;;;;;;;;6284693;22;20019;-81
2023/09/28 01:36:51;;;;;;;4.35;3.67;;;;;;;;;;6313496;22;20011;-80
2023/09/28 01:39:17;;;;;;;4.35;3.95;;;;;;;;;;6311740;22;20019;-80
2023/09/28 01:41:43;;;;;;;4.00;3.60;;;;;;;;;;6312855;22;20530;-80
2023/09/28 01:44:09;;;;;;;3.65;3.28;;;;;;;;;;6285053;22;20577;-80
2023/09/28 01:46:35;;;;;;;4.22;3.85;;;;;;;;;;6284686;22;20015;-80
2023/09/28 01:49:01;;;;;;;5.15;3.53;;;;;;;;;;6285057;22;20019;-80
2023/09/28 01:51:27;;;;;;;3.75;3.40;;;;;;;;;;6284374;22;20011;-81
2023/09/28 01:53:53;;;;;;;3.58;3.10;;;;;;;;;;6311459;22;20008;-81
2023/09/28 01:56:21;;;;;;;4.40;3.80;;;;;;;;;;6283427;22;20038;-80
2023/09/28 01:58:47;;;;;;;4.45;3.65;;;;;;;;;;6284406;22;20016;-80
2023/09/28 02:01:23;;;;;;;5.47;3.92;;;;;;;;;;6310705;22;20022;-80
2023/09/28 02:03:50;;;;;;;4.35;3.42;;;;;;;;;;6311553;22;20007;-80
2023/09/28 02:06:16;;;;;;;4.95;3.13;;;;;;;;;;6311509;22;20019;-80
2023/09/28 02:08:43;;;;;;;4.00;3.38;;;;;;;;;;6284781;22;20022;-80
2023/09/28 02:11:11;;;;;;;5.72;3.33;;;;;;;;;;6312125;22;20723;-80
2023/09/28 02:13:37;;;;;;;5.53;3.97;;;;;;;;;;6283915;22;20008;-80
2023/09/28 02:16:03;;;;;;;4.25;3.67;;;;;;;;;;6258073;22;20043;-80
2023/09/28 02:18:29;;;;;;;4.10;3.28;;;;;;;;;;6284892;22;20019;-80
2023/09/28 02:20:55;;;;;;;5.47;3.30;;;;;;;;;;6283264;22;20015;-80
2023/09/28 02:23:22;;;;;;;5.20;3.42;;;;;;;;;;6284853;22;20444;-80
2023/09/28 02:25:48;;;;;;;4.63;3.83;;;;;;;;;;6314505;22;20068;-81
2023/09/28 02:28:14;;;;;;;4.45;3.22;;;;;;;;;;6314183;22;20098;-81
2023/09/28 02:30:40;;;;;;;4.93;3.15;;;;;;;;;;6313633;22;20041;-80
2023/09/28 02:33:06;;;;;;;3.88;2.85;;;;;;;;;;6314435;22;20014;-80
2023/09/28 02:35:32;;;;;;;4.13;3.20;;;;;;;;;;6286016;22;20118;-80
2023/09/28 02:37:58;;;;;;;6.38;3.55;;;;;;;;;;6313801;22;20030;-80
2023/09/28 02:40:25;;;;;;;7.05;3.28;;;;;;;;;;6282804;22;20015;-80
2023/09/28 02:42:51;;;;;;;4.13;3.42;;;;;;;;;;6311429;22;20440;-81
2023/09/28 02:45:18;;;;;;;3.53;3.20;;;;;;;;;;6284790;22;20348;-81
2023/09/28 02:47:46;;;;;;;3.30;3.00;;;;;;;;;;6285295;22;20073;-80
2023/09/28 02:50:13;;;;;;;4.88;2.90;;;;;;;;;;6284799;22;20011;-80
2023/09/28 02:52:40;;;;;;;4.57;3.00;;;;;;;;;;6285970;22;20042;-80
2023/09/28 02:55:07;;;;;;;3.80;3.50;;;;;;;;;;6286018;22;20011;-80
2023/09/28 02:57:34;;;;;;;4.30;3.28;;;;;;;;;;6287376;22;20019;-80
2023/09/28 03:00:01;;;;;;;4.55;3.40;;;;;;;;;;6286162;22;20061;-80
2023/09/28 03:02:27;;;;;;;5.40;3.20;;;;;;;;;;6287414;22;20071;-80
2023/09/28 03:04:53;;;;;;;3.72;3.25;;;;;;;;;;6315364;22;20060;-80
2023/09/28 03:07:20;;;;;;;4.70;3.17;;;;;;;;;;6315010;22;20023;-80
2023/09/28 03:09:46;;;;;;;6.30;3.47;;;;;;;;;;6315311;22;20038;-80
2023/09/28 03:12:12;;;;;;;4.82;3.70;;;;;;;;;;6314346;22;20018;-81
2023/09/28 03:14:38;;;;;;;4.57;3.50;;;;;;;;;;6315858;22;20022;-81
2023/09/28 03:17:04;;;;;;;4.53;3.67;;;;;;;;;;6314171;22;20011;-81
2023/09/28 03:19:31;;;;;;;4.45;3.25;;;;;;;;;;6286967;22;20011;-81
2023/09/28 03:21:57;;;;;;;4.00;3.40;;;;;;;;;;6286326;22;20015;-81
2023/09/28 03:24:23;;;;;;;6.60;3.50;;;;;;;;;;6283417;22;20015;-81
2023/09/28 03:26:50;;;;;;;4.90;3.33;;;;;;;;;;6285029;22;20069;-81
2023/09/28 03:29:17;;;;;;;5.55;4.07;;;;;;;;;;6286183;22;20019;-81
2023/09/28 03:31:43;;;;;;;4.25;3.42;;;;;;;;;;6287404;22;20072;-81
2023/09/28 03:34:09;;;;;;;3.53;3.22;;;;;;;;;;6285703;22;20025;-81
2023/09/28 03:36:35;;;;;;;3.80;3.05;;;;;;;;;;6287223;22;20018;-80
2023/09/28 03:39:01;;;;;;;4.35;3.13;;;;;;;;;;6314964;22;20022;-80
2023/09/28 03:41:27;;;;;;;4.15;3.38;;;;;;;;;;6314027;22;20011;-80
2023/09/28 03:43:54;;;;;;;4.65;3.10;;;;;;;;;;6314534;22;20067;-80
2023/09/28 03:46:20;;;;;;;4.10;3.55;;;;;;;;;;6285772;22;20011;-80
2023/09/28 03:48:46;;;;;;;4.47;3.20;;;;;;;;;;6260816;22;20029;-80
2023/09/28 03:51:15;;;;;;;3.35;3.05;;;;;;;;;;6285666;22;20015;-80
2023/09/28 03:53:41;;;;;;;4.18;3.58;;;;;;;;;;6314324;22;20008;-80
2023/09/28 03:56:07;;;;;;;3.95;3.20;;;;;;;;;;6312919;22;20424;-80
2023/09/28 03:58:34;;;;;;;3.38;3.08;;;;;;;;;;6284550;22;20049;-80
2023/09/28 04:01:03;;;;;;;4.78;3.35;;;;;;;;;;6283433;22;20406;-80
2023/09/28 04:03:29;;;;;;;3.78;3.15;;;;;;;;;;6257568;22;20015;-80
2023/09/28 04:05:55;;;;;;;5.10;3.47;;;;;;;;;;6284304;22;20348;-80
2023/09/28 04:08:22;;;;;;;4.82;3.70;;;;;;;;;;6284099;22;20460;-80
2023/09/28 04:10:50;;;;;;;3.80;3.15;;;;;;;;;;6312493;22;20017;-81
2023/09/28 04:13:17;;;;;;;5.07;3.33;;;;;;;;;;6311832;22;20034;-80
2023/09/28 04:15:43;;;;;;;4.28;3.42;;;;;;;;;;6311873;22;20463;-81
2023/09/28 04:18:09;;;;;;;5.40;3.40;;;;;;;;;;6284014;22;20018;-81
2023/09/28 04:20:35;;;;;;;4.05;3.33;;;;;;;;;;6312522;22;20083;-80
2023/09/28 04:23:05;;;;;;;3.92;2.95;;;;;;;;;;6283723;22;20069;-81
2023/09/28 04:25:32;;;;;;;5.22;3.30;;;;;;;;;;6310849;22;20011;-81
2023/09/28 04:27:58;;;;;;;4.13;3.33;;;;;;;;;;6310623;22;20452;-81
2023/09/28 04:30:24;;;;;;;4.55;3.58;;;;;;;;;;6311860;22;20018;-81
2023/09/28 04:32:54;;;;;;;3.92;3.45;;;;;;;;;;6312282;22;20008;-81
2023/09/28 04:35:20;;;;;;;5.63;4.30;;;;;;;;;;6312886;22;20086;-80
2023/09/28 04:37:50;;;;;;;4.78;3.75;;;;;;;;;;6311786;22;20015;-81
2023/09/28 04:40:17;;;;;;;4.82;3.95;;;;;;;;;;6311799;22;20019;-81
2023/09/28 04:42:46;;;;;;;4.28;3.70;;;;;;;;;;6313506;22;20018;-81
2023/09/28 04:45:12;;;;;;;5.68;3.63;;;;;;;;;;6311920;22;20015;-81
2023/09/28 04:47:38;;;;;;;4.28;3.55;;;;;;;;;;6284440;22;20090;-81
2023/09/28 04:50:04;;;;;;;3.55;3.22;;;;;;;;;;6312009;22;20015;-81
2023/09/28 04:52:30;;;;;;;4.85;3.67;;;;;;;;;;6283423;22;20019;-81
2023/09/28 04:54:57;;;;;;;4.25;3.83;;;;;;;;;;6283992;22;20014;-81
2023/09/28 04:57:24;;;;;;;5.00;3.25;;;;;;;;;;6285651;22;20015;-81
2023/09/28 04:59:51;;;;;;;5.30;3.72;;;;;;;;;;6284895;22;20019;-81
2023/09/28 05:02:17;;;;;;;6.13;3.90;;;;;;;;;;6312617;22;20015;-81
2023/09/28 05:04:43;;;;;;;5.05;3.80;;;;;;;;;;6313676;22;20042;-80
2023/09/28 05:07:09;;;;;;;4.45;3.75;;;;;;;;;;6311620;22;20047;-81
2023/09/28 05:09:35;;;;;;;5.20;3.90;;;;;;;;;;6313050;22;20019;-80
2023/09/28 05:12:01;;;;;;;5.93;3.78;;;;;;;;;;6312778;22;20018;-81
2023/09/28 05:14:28;;;;;;;6.80;4.38;;;;;;;;;;6285106;22;20007;-81
2023/09/28 05:16:54;;;;;;;5.97;3.95;;;;;;;;;;6276912;22;20015;-83
2023/09/28 05:19:21;;;;;;;6.15;4.60;;;;;;;;;;6280616;22;20459;-80
2023/09/28 05:21:47;;;;;;;5.50;3.63;;;;;;;;;;6258209;22;20019;-81
2023/09/28 05:24:13;;;;;;;6.25;4.25;;;;;;;;;;6311648;22;20091;-80
2023/09/28 05:26:39;;;;;;;5.63;4.13;;;;;;;;;;6310908;22;20015;-80
2023/09/28 05:29:05;;;;;;;4.80;3.63;;;;;;;;;;6309843;22;20016;-81
2023/09/28 05:31:31;;;;;;;4.50;3.70;;;;;;;;;;6309213;22;20381;-80
2023/09/28 05:33:57;;;;;;;3.45;3.15;;;;;;;;;;6308757;22;20467;-80
2023/09/28 05:36:23;;;;;;;5.72;3.78;;;;;;;;;;6309091;22;20015;-80
2023/09/28 05:38:49;;;;;;;5.25;3.65;;;;;;;;;;6307885;22;20011;-84
2023/09/28 05:41:15;;;;;;;6.15;3.72;;;;;;;;;;6309091;22;20019;-80
2023/09/28 05:43:41;;;;;;;5.07;3.55;;;;;;;;;;6307747;22;20329;-79
2023/09/28 05:46:09;;;;;;;5.30;4.15;;;;;;;;;;6305879;22;20026;-80
2023/09/28 05:48:36;;;;;;;5.03;3.72;;;;;;;;;;6306930;22;20464;-79
2023/09/28 05:51:03;;;;;;;7.05;4.07;;;;;;;;;;6306567;22;20091;-79
2023/09/28 05:53:29;;;;;;;8.07;3.80;;;;;;;;;;6278238;22;20011;-79
2023/09/28 05:55:55;;;;;;;6.40;4.13;;;;;;;;;;6306066;22;20083;-79
2023/09/28 05:58:21;;;;;;;5.40;3.97;;;;;;;;;;6280103;22;20471;-80
2023/09/28 06:00:47;;;;;;;4.05;3.08;;;;;;;;;;6280750;22;20448;-80
2023/09/28 06:03:13;;;;;;;4.10;3.45;;;;;;;;;;6280994;22;20396;-79
2023/09/28 06:05:40;;;;;;;4.22;2.78;;;;;;;;;;6281299;22;20086;-79
2023/09/28 06:08:06;;;;;;;7.22;3.72;;;;;;;;;;6305174;22;20336;-80
2023/09/28 06:10:33;;;;;;;5.78;3.60;;;;;;;;;;6309071;22;20015;-80
2023/09/28 06:12:59;;;;;;;6.22;3.50;;;;;;;;;;6281483;22;20011;-79
2023/09/28 06:15:25;;;;;;;6.90;3.15;;;;;;;;;;6281850;22;20015;-79
2023/09/28 06:17:51;;;;;;;6.32;3.50;;;;;;;;;;6307915;22;20017;-80
2023/09/28 06:20:17;;;;;;;7.30;3.35;;;;;;;;;;6280691;22;20019;-80
2023/09/28 06:22:44;;;;;;;7.38;3.53;;;;;;;;;;6283641;22;20091;-80
2023/09/28 06:25:10;;;;;;;6.22;3.22;;;;;;;;;;6281833;22;20030;-80
2023/09/28 06:27:37;;;;;;;6.88;3.13;;;;;;;;;;6304716;22;20336;-79
2023/09/28 06:30:03;;;;;;;5.00;2.55;;;;;;;;;;6305193;22;20468;-79
2023/09/28 06:32:29;;;;;;;9.00;3.22;;;;;;;;;;6306259;22;20331;-79
2023/09/28 06:34:55;;;;;;;5.40;2.65;;;;;;;;;;6305430;22;20082;-79
2023/09/28 06:37:21;;;;;;;7.22;2.67;;;;;;;;;;6279628;22;20019;-79
2023/09/28 06:39:47;;;;;;;5.75;3.63;;;;;;;;;;6305797;22;20008;-79
2023/09/28 06:42:13;;;;;;;6.75;2.72;;;;;;;;;;6305481;22;20014;-79
2023/09/28 06:44:39;;;;;;;10.23;2.83;;;;;;;;;;6279296;22;20463;-79
2023/09/28 06:47:05;;;;;;;6.93;2.85;;;;;;;;;;6305676;22;20102;-79
2023/09/28 06:49:32;;;;;;;10.68;2.92;;;;;;;;;;6306420;22;20069;-78
2023/09/28 06:51:58;;;;;;;5.90;2.67;;;;;;;;;;6303152;22;20012;-79
2023/09/28 06:54:24;;;;;;;9.98;2.60;;;;;;;;;;6307037;22;20074;-79
2023/09/28 06:56:51;;;;;;;5.30;2.70;;;;;;;;;;6280169;22;20007;-79
2023/09/28 06:59:17;;;;;;;7.65;2.38;;;;;;;;;;6307280;22;20128;-79
2023/09/28 07:01:44;;;;;;;7.82;2.83;;;;;;;;;;6279528;22;20019;-79
2023/09/28 07:04:11;;;;;;;4.78;2.10;;;;;;;;;;6304702;22;20011;-78
2023/09/28 07:06:37;;;;;;;6.32;2.35;;;;;;;;;;6279298;22;20072;-79
2023/09/28 07:09:05;;;;;;;8.05;2.35;;;;;;;;;;6306655;22;20444;-81
2023/09/28 07:11:32;;;;;;;5.82;2.63;;;;;;;;;;6282457;22;20007;-81
2023/09/28 07:13:58;;;;;;;10.35;2.38;;;;;;;;;;6282501;22;20019;-80
2023/09/28 07:16:24;;;;;;;7.97;2.30;;;;;;;;;;6310296;22;20082;-81
2023/09/28 07:18:50;;;;;;;8.57;2.63;;;;;;;;;;6282807;22;20038;-81
2023/09/28 07:21:16;;;;;;;8.50;2.78;;;;;;;;;;6310050;22;20011;-81
2023/09/28 07:23:42;;;;;;;5.90;2.97;;;;;;;;;;6283503;22;20045;-81
2023/09/28 07:26:16;;;;;;;8.80;2.75;;;;;;;;;;6283230;22;20456;-81
2023/09/28 07:28:42;;;;;;;5.97;2.17;;;;;;;;;;6311497;22;20012;-80
2023/09/28 07:31:08;;;;;;;7.75;2.25;;;;;;;;;;6281968;22;20015;-81
2023/09/28 07:33:35;;;;;;;14.13;3.22;;;;;;;;;;6310858;22;20011;-81
2023/09/28 07:36:05;;;;;;;8.50;2.45;;;;;;;;;;6311193;22;20090;-81
2023/09/28 07:38:32;;;;;;;7.35;2.67;;;;;;;;;;6282817;22;20021;-81
2023/09/28 07:41:02;;;;;;;9.95;2.67;;;;;;;;;;6311040;22;20379;-81
2023/09/28 07:43:28;;;;;;;5.80;2.50;;;;;;;;;;6309004;22;20047;-81
2023/09/28 07:45:54;;;;;;;13.02;3.00;;;;;;;;;;6308754;22;20015;-81
2023/09/28 07:48:20;;;;;;;13.95;2.70;;;;;;;;;;6283567;22;20015;-81
2023/09/28 07:50:46;;;;;;;9.60;2.47;;;;;;;;;;6311781;22;20436;-81
2023/09/28 07:53:12;;;;;;;7.88;2.65;;;;;;;;;;6307969;22;20018;-86
2023/09/28 07:55:38;;;;;;;8.77;2.03;;;;;;;;;;6279552;22;20012;-84
2023/09/28 07:58:04;;;;;;;8.80;2.25;;;;;;;;;;6281069;22;20011;-89
2023/09/28 08:00:32;;;;;;;7.05;1.60;;;;;;;;;;6280233;22;20470;-86
2023/09/28 08:02:58;;;;;;;8.70;2.75;;;;;;;;;;6281845;22;20019;-85
2023/09/28 08:05:24;;;;;;;12.80;3.13;;;;;;;;;;6281501;22;20011;-85
2023/09/28 08:07:50;;;;;;;6.65;2.13;;;;;;;;;;6279749;22;20517;-85
2023/09/28 08:10:16;;;;;;;9.20;2.53;;;;;;;;;;6305409;22;20011;-85
2023/09/28 08:12:44;;;;;;;9.20;3.20;;;;;;;;;;6253066;22;20090;-85
2023/09/28 08:15:10;;;;;;;9.93;2.60;;;;;;;;;;6277630;22;20467;-83
2023/09/28 08:17:39;;;;;;;8.60;2.40;;;;;;;;;;6306252;22;20069;-83
2023/09/28 08:20:06;;;;;;;9.73;2.78;;;;;;;;;;6306739;22;20011;-85
2023/09/28 08:22:34;;;;;;;9.85;2.10;;;;;;;;;;6281253;22;20015;-84
2023/09/28 08:25:00;;;;;;;10.30;2.53;;;;;;;;;;6283049;22;20060;-84
2023/09/28 08:27:26;;;;;;;9.40;2.55;;;;;;;;;;6309348;22;20042;-84
2023/09/28 08:29:52;;;;;;;11.25;2.30;;;;;;;;;;6285413;22;20336;-85
2023/09/28 08:32:18;;;;;;;11.93;2.92;;;;;;;;;;6311244;22;20041;-84
2023/09/28 08:34:44;;;;;;;9.95;1.90;;;;;;;;;;6278921;22;20094;-84
2023/09/28 08:37:10;;;;;;;9.27;2.00;;;;;;;;;;6275453;22;20352;-81
2023/09/28 08:39:39;;;;;;;9.80;2.10;;;;;;;;;;6306474;22;20018;-83
2023/09/28 08:42:07;;;;;;;9.23;3.05;;;;;;;;;;6280229;22;20018;-82
2023/09/28 08:44:35;;;;;;;10.48;2.15;;;;;;;;;;6309853;22;20023;-82
2023/09/28 08:47:01;;;;;;;7.88;2.15;;;;;;;;;;6281548;22;20097;-80
2023/09/28 08:49:29;;;;;;;8.70;2.00;;;;;;;;;;6310256;22;20064;-82
2023/09/28 08:51:55;;;;;;;10.63;3.60;;;;;;;;;;6278448;22;20076;-83
2023/09/28 08:54:22;;;;;;;10.10;2.38;;;;;;;;;;6308382;22;20436;-86
2023/09/28 08:56:48;;;;;;;13.18;2.70;;;;;;;;;;6280293;22;20007;-90
2023/09/28 08:59:18;;;;;;;7.43;2.00;;;;;;;;;;6278495;22;20019;-86
2023/09/28 09:01:46;;;;;;;9.23;2.13;;;;;;;;;;6276902;22;20015;-86
2023/09/28 09:04:12;;;;;;;8.35;1.83;;;;;;;;;;6278930;22;20474;-86
2023/09/28 09:06:38;;;;;;;7.43;1.90;;;;;;;;;;6280485;22;20007;-87
2023/09/28 09:09:12;;;;;;;10.85;2.72;;;;;;;;;;6254934;22;20046;-86
2023/09/28 09:11:39;;;;;;;8.80;2.25;;;;;;;;;;6254170;22;20012;-87
2023/09/28 09:14:05;;;;;;;8.80;2.13;;;;;;;;;;6279835;22;20093;-86
2023/09/28 09:16:31;;;;;;;8.88;2.53;;;;;;;;;;6254942;22;20008;-87
2023/09/28 09:18:57;;;;;;;9.73;2.42;;;;;;;;;;6279981;22;20043;-83
2023/09/28 09:21:24;;;;;;;9.35;2.38;;;;;;;;;;6306707;22;20039;-83
2023/09/28 09:24:03;;;;;;;10.40;2.55;;;;;;;;;;6281171;22;20015;-83
2023/09/28 09:26:39;;;;;;;9.13;2.38;;;;;;;;;;6301943;22;20344;-85
2023/09/28 09:29:05;;;;;;;13.95;2.40;;;;;;;;;;6308274;22;20431;-85
2023/09/28 09:31:31;;;;;;;12.32;3.97;;;;;;;;;;6282966;22;20011;-85
2023/09/28 09:33:57;;;;;;;6.25;2.15;;;;;;;;;;6313112;22;20011;-86
2023/09/28 09:36:23;;;;;;;12.02;2.20;;;;;;;;;;6309923;22;20087;-85
2023/09/28 09:38:52;;;;;;;9.85;1.83;;;;;;;;;;6255409;22;20015;-84
2023/09/28 09:41:18;;;;;;;10.90;3.00;;;;;;;;;;6307138;22;20015;-88
2023/09/28 09:43:44;;;;;;;12.98;2.47;;;;;;;;;;6307603;22;20015;-84
2023/09/28 09:46:10;;;;;;;18.65;2.70;;;;;;;;;;6281493;22;20023;-84
2023/09/28 09:48:43;;;;;;;8.52;1.60;;;;;;;;;;6308602;22;20026;-85
2023/09/28 09:51:18;;;;;;;12.00;1.60;;;;;;;;;;6308626;22;20011;-85
2023/09/28 09:53:45;;;;;;;7.45;1.73;;;;;;;;;;6255548;22;20019;-85
2023/09/28 09:56:12;;;;;;;10.25;2.20;;;;;;;;;;6308191;22;20039;-85
2023/09/28 09:58:40;;;;;;;7.93;2.20;;;;;;;;;;6308368;22;20011;-85
2023/09/28 10:01:10;;;;;;;11.00;2.35;;;;;;;;;;6280571;22;20050;-83
2023/09/28 10:03:38;;;;;;;11.00;2.00;;;;;;;;;;6281778;22;20015;-94
2023/09/28 10:06:05;;;;;;;9.18;1.77;;;;;;;;;;6255454;22;20011;-86
2023/09/28 10:08:32;;;;;;;10.98;1.77;;;;;;;;;;6307854;22;20012;-84
2023/09/28 10:11:00;;;;;;;9.00;1.55;;;;;;;;;;6307046;22;20011;-84
2023/09/28 10:13:27;;;;;;;8.10;1.73;;;;;;;;;;6306113;22;20022;-85
2023/09/28 10:15:54;;;;;;;8.27;1.70;;;;;;;;;;6306335;22;20072;-84
2023/09/28 10:18:21;;;;;;;12.55;2.08;;;;;;;;;;6307246;22;20085;-86
2023/09/28 10:20:47;;;;;;;11.95;1.80;;;;;;;;;;6279164;22;20023;-85
2023/09/28 10:23:17;;;;;;;13.07;1.92;;;;;;;;;;6307661;22;20095;-86
2023/09/28 10:25:54;;;;;;;9.48;1.67;;;;;;;;;;6282152;22;20080;-86
2023/09/28 10:28:20;;;;;;;6.05;1.48;;;;;;;;;;6311323;22;20090;-82
2023/09/28 10:30:46;;;;;;;7.25;1.70;;;;;;;;;;6256141;22;20752;-90
2023/09/28 10:33:12;;;;;;;6.10;1.23;;;;;;;;;;6256559;22;20389;-83
2023/09/28 10:35:40;;;;;;;5.22;1.38;;;;;;;;;;6282855;22;20047;-86
2023/09/28 10:38:18;;;;;;;7.28;1.40;;;;;;;;;;6282653;22;20087;-82
2023/09/28 10:40:48;;;;;;;10.60;2.08;;;;;;;;;;6313870;22;20054;-83
2023/09/28 10:43:27;;;;;;;5.40;1.45;;;;;;;;;;6311909;22;20118;-84
2023/09/28 10:45:52;;;;;;;9.15;1.45;;;;;;;;;;6310827;22;20012;-82
2023/09/28 10:48:18;;;;;;;9.10;1.67;;;;;;;;;;6284254;22;20057;-82
2023/09/28 10:50:47;;;;;;;8.02;2.08;;;;;;;;;;6285721;22;20094;-82
2023/09/28 10:53:13;;;;;;;9.57;1.85;;;;;;;;;;6311133;22;20011;-83
2023/09/28 10:55:41;;;;;;;10.07;2.03;;;;;;;;;;6283454;22;20064;-82
2023/09/28 10:58:08;;;;;;;8.77;1.80;;;;;;;;;;6314003;22;20023;-81
2023/09/28 11:00:34;;;;;;;8.35;1.70;;;;;;;;;;6285309;22;20023;-83
2023/09/28 11:03:00;;;;;;;4.80;1.23;;;;;;;;;;6285016;22;20022;-82
2023/09/28 11:05:27;;;;;;;7.35;1.27;;;;;;;;;;6286257;22;20054;-82
2023/09/28 11:07:53;;;;;;;7.43;1.85;;;;;;;;;;6312219;22;20332;-81
2023/09/28 11:10:23;;;;;;;5.95;1.88;;;;;;;;;;6283242;22;20018;-81
2023/09/28 11:12:49;;;;;;;;;;;;;;;;;;6312175;22;20332;-81
2023/09/28 11:15:15;;;;;;;9.38;1.98;;;;;;;;;;6312177;22;19910;-82
2023/09/28 11:17:41;;;;;;;6.53;1.40;;;;;;;;;;6312298;22;20015;-82
2023/09/28 11:20:11;;;;;;;6.38;1.48;;;;;;;;;;6283476;22;20019;-82
2023/09/28 11:22:38;;;;;;;13.15;2.80;;;;;;;;;;6309582;22;20015;-83
2023/09/28 11:25:04;;;;;;;6.15;1.63;;;;;;;;;;6309650;22;20021;-81
2023/09/28 11:27:31;;;;;;;9.10;2.10;;;;;;;;;;6309685;22;20011;-82
2023/09/28 11:29:57;;;;;;;6.75;1.60;;;;;;;;;;6312578;22;20059;-82
2023/09/28 11:32:23;;;;;;;8.63;1.83;;;;;;;;;;6313338;22;20011;-82
2023/09/28 11:34:49;;;;;;;7.68;1.42;;;;;;;;;;6286164;22;20011;-82
2023/09/28 11:37:19;;;;;;;9.40;1.88;;;;;;;;;;6312869;22;20011;-82
2023/09/28 11:39:45;;;;;;;11.38;1.40;;;;;;;;;;6288258;22;20016;-82
2023/09/28 11:42:12;;;;;;;8.75;1.75;;;;;;;;;;6314557;22;20015;-82
2023/09/28 11:44:42;;;;;;;4.97;2.00;;;;;;;;;;6286635;22;20013;-82
2023/09/28 11:47:08;;;;;;;9.15;1.85;;;;;;;;;;6313874;22;20069;-82
2023/09/28 11:49:37;;;;;;;7.10;1.50;;;;;;;;;;6313755;22;20430;-82
2023/09/28 11:52:04;;;;;;;7.18;1.52;;;;;;;;;;6286585;22;20022;-81
2023/09/28 11:54:30;;;;;;;8.90;1.52;;;;;;;;;;6313786;22;20065;-82
2023/09/28 11:56:57;;;;;;;5.97;1.90;;;;;;;;;;6314453;22;20035;-81
2023/09/28 11:59:23;;;;;;;7.25;1.27;;;;;;;;;;6285651;22;20042;-82
2023/09/28 12:01:51;;;;;;;9.88;2.00;;;;;;;;;;6285209;22;20023;-82
2023/09/28 12:04:18;;;;;;;8.88;1.95;;;;;;;;;;6311476;22;20015;-82
2023/09/28 12:06:45;;;;;;;4.65;1.75;;;;;;;;;;6313179;22;20007;-82
2023/09/28 12:09:13;;;;;;;7.82;1.90;;;;;;;;;;6284921;22;20475;-82
2023/09/28 12:11:44;;;;;;;9.40;1.65;;;;;;;;;;6312391;22;20011;-82
2023/09/28 12:14:10;;;;;;;10.18;2.50;;;;;;;;;;6284389;22;20055;-82
2023/09/28 12:16:36;;;;;;;10.35;3.05;;;;;;;;;;6285434;22;20030;-82
2023/09/28 12:19:02;;;;;;;9.27;1.90;;;;;;;;;;6284776;22;20377;-81
2023/09/28 12:21:28;;;;;;;7.13;2.05;;;;;;;;;;6311478;22;20023;-81
2023/09/28 12:23:55;;;;;;;10.13;2.00;;;;;;;;;;6311710;22;20015;-82
2023/09/28 12:26:21;;;;;;;9.18;2.53;;;;;;;;;;6312006;22;20313;-82
2023/09/28 12:28:47;;;;;;;10.77;2.33;;;;;;;;;;6312473;22;20073;-81
2023/09/28 12:31:13;;;;;;;9.07;1.90;;;;;;;;;;6282619;22;20049;-82
2023/09/28 12:33:40;;;;;;;11.00;2.47;;;;;;;;;;6283256;22;20463;-82
2023/09/28 12:36:06;;;;;;;7.47;2.03;;;;;;;;;;6310217;22;20421;-82
2023/09/28 12:38:33;;;;;;;9.20;1.90;;;;;;;;;;6310071;22;20440;-81
2023/09/28 12:40:59;;;;;;;10.00;2.35;;;;;;;;;;6283430;22;20086;-82
2023/09/28 12:43:26;;;;;;;7.93;1.95;;;;;;;;;;6257936;22;20046;-82
2023/09/28 12:45:52;;;;;;;6.20;1.52;;;;;;;;;;6283451;22;20011;-82
2023/09/28 12:48:20;;;;;;;9.35;2.47;;;;;;;;;;6285031;22;20026;-82
2023/09/28 12:50:47;;;;;;;6.93;1.80;;;;;;;;;;6284784;22;20015;-82
2023/09/28 12:53:14;;;;;;;10.65;2.22;;;;;;;;;;6311774;22;20078;-81
2023/09/28 12:55:40;;;;;;;9.82;1.98;;;;;;;;;;6312250;22;20011;-81
2023/09/28 12:58:06;;;;;;;8.57;1.77;;;;;;;;;;6311960;22;20015;-82
2023/09/28 13:00:33;;;;;;;5.85;1.60;;;;;;;;;;6308013;22;20018;-89
2023/09/28 13:02:59;;;;;;;10.25;2.38;;;;;;;;;;6275943;22;20019;-84
2023/09/28 13:05:25;;;;;;;11.38;2.10;;;;;;;;;;6277303;22;20050;-85
2023/09/28 13:07:51;;;;;;;15.63;3.47;;;;;;;;;;6252206;22;20012;-86
2023/09/28 13:10:27;;;;;;;8.20;2.17;;;;;;;;;;6283266;22;20011;-82
2023/09/28 13:12:53;;;;;;;9.65;2.75;;;;;;;;;;6312028;22;20008;-83
2023/09/28 13:15:22;;;;;;;6.65;2.10;;;;;;;;;;6280043;22;20082;-83
2023/09/28 13:17:48;;;;;;;8.45;2.22;;;;;;;;;;6284311;22;20020;-83
2023/09/28 13:20:26;;;;;;;9.90;2.20;;;;;;;;;;6311174;22;20079;-82
2023/09/28 13:22:54;;;;;;;10.27;2.10;;;;;;;;;;6311217;22;20043;-83
2023/09/28 13:25:21;;;;;;;8.88;1.98;;;;;;;;;;6309160;22;20042;-83
2023/09/28 13:27:47;;;;;;;11.70;2.25;;;;;;;;;;6309006;22;20015;-81
2023/09/28 13:30:13;;;;;;;10.13;3.17;;;;;;;;;;6281342;22;20016;-81
2023/09/28 13:32:39;;;;;;;7.82;1.83;;;;;;;;;;6310790;22;20015;-81
2023/09/28 13:35:09;;;;;;;8.20;1.98;;;;;;;;;;6282744;22;20102;-81
2023/09/28 13:37:35;;;;;;;;;;;;;;;;;;6310369;22;20078;-81
2023/09/28 13:40:01;;;;;;;8.05;1.98;;;;;;;;;;6310060;22;19933;-81
2023/09/28 13:42:27;;;;;;;8.70;2.00;;;;;;;;;;6309511;22;20372;-81
2023/09/28 13:44:53;;;;;;;10.00;2.42;;;;;;;;;;6310378;22;20012;-81
2023/09/28 13:47:19;;;;;;;11.65;2.33;;;;;;;;;;6310390;22;20015;-81
2023/09/28 13:49:45;;;;;;;7.75;2.50;;;;;;;;;;6309472;22;20030;-81
2023/09/28 13:52:11;;;;;;;9.55;2.10;;;;;;;;;;6282758;22;20012;-81
2023/09/28 13:54:37;;;;;;;9.25;2.13;;;;;;;;;;6311452;22;20018;-81
2023/09/28 13:57:09;;;;;;;8.02;2.47;;;;;;;;;;6311152;22;20301;-81
2023/09/28 13:59:37;;;;;;;6.55;2.22;;;;;;;;;;6310586;22;20027;-80
2023/09/28 14:02:03;;;;;;;8.10;2.35;;;;;;;;;;6282320;22;20313;-81
2023/09/28 14:04:29;;;;;;;8.63;2.08;;;;;;;;;;6282209;22;20022;-81
2023/09/28 14:06:55;;;;;;;9.02;2.65;;;;;;;;;;6309747;22;20011;-81
2023/09/28 14:09:26;;;;;;;9.18;1.98;;;;;;;;;;6311093;22;20017;-81
2023/09/28 14:11:52;;;;;;;10.45;2.20;;;;;;;;;;6283215;22;20446;-81
2023/09/28 14:14:18;;;;;;;9.73;2.50;;;;;;;;;;6281972;22;20015;-81
2023/09/28 14:16:44;;;;;;;7.13;2.05;;;;;;;;;;6258549;22;20019;-81
2023/09/28 14:19:11;;;;;;;8.27;1.77;;;;;;;;;;6283512;22;20065;-81
2023/09/28 14:21:38;;;;;;;11.05;2.85;;;;;;;;;;6282838;22;20016;-82
2023/09/28 14:24:08;;;;;;;8.43;2.08;;;;;;;;;;6285248;22;20471;-82
2023/09/28 14:26:34;;;;;;;7.68;1.88;;;;;;;;;;6258828;22;20098;-82
2023/09/28 14:29:00;;;;;;;8.02;2.25;;;;;;;;;;6284658;22;20019;-82
2023/09/28 14:31:27;;;;;;;10.50;2.25;;;;;;;;;;6258577;22;20047;-82
2023/09/28 14:33:55;;;;;;;8.35;2.30;;;;;;;;;;6283966;22;20019;-82
2023/09/28 14:36:22;;;;;;;10.57;1.98;;;;;;;;;;6310655;22;20317;-82
2023/09/28 14:38:50;;;;;;;8.02;2.10;;;;;;;;;;6285702;22;20218;-82